sensor_id;sensor_type;location;lat;lon;timestamp;temperature;humidity
72865;DHT22;61000;48.120;11.548;2022-08-21T00:00:53;16.40;99.90
72865;DHT22;61000;48.120;11.548;2022-08-21T00:03:20;16.30;99.90
72865;DHT22;61000;48.120;11.548;2022-08-21T00:05:50;16.30;99.90
72865;DHT22;61000;48.120;11.548;2022-08-21T00:08:18;16.30;99.90
72865;DHT22;61000;48.120;11.548;2022-08-21T00:10:47;16.30;99.90
72865;DHT22;61000;48.120;11.548;2022-08-21T00:13:15;16.20;99.90
72865;DHT22;61000;48.120;11.548;2022-08-21T00:15:43;16.20;99.90
72865;DHT22;61000;48.120;11.548;2022-08-21T00:18:10;16.20;99.90
72865;DHT22;61000;48.120;11.548;2022-08-21T00:20:38;16.10;99.90
72865;DHT22;61000;48.120;11.548;2022-08-21T00:23:05;16.10;99.90
72865;DHT22;61000;48.120;11.548;2022-08-21T00:25:32;16.10;99.90
72865;DHT22;61000;48.120;11.548;2022-08-21T00:28:01;16.10;99.90
72865;DHT22;61000;48.120;11.548;2022-08-21T00:30:29;16.00;99.90
72865;DHT22;61000;48.120;11.548;2022-08-21T00:32:56;16.00;99.90
72865;DHT22;61000;48.120;11.548;2022-08-21T00:35:27;15.90;99.90
72865;DHT22;61000;48.120;11.548;2022-08-21T00:37:54;16.00;99.90
72865;DHT22;61000;48.120;11.548;2022-08-21T00:40:24;15.90;99.90
72865;DHT22;61000;48.120;11.548;2022-08-21T00:42:52;15.90;99.90
72865;DHT22;61000;48.120;11.548;2022-08-21T00:45:20;15.90;99.90
72865;DHT22;61000;48.120;11.548;2022-08-21T00:47:47;15.80;99.90
72865;DHT22;61000;48.120;11.548;2022-08-21T00:50:14;15.80;99.90
72865;DHT22;61000;48.120;11.548;2022-08-21T00:52:41;15.80;99.90
72865;DHT22;61000;48.120;11.548;2022-08-21T00:55:10;15.80;99.90
72865;DHT22;61000;48.120;11.548;2022-08-21T00:57:42;15.80;99.90
72865;DHT22;61000;48.120;11.548;2022-08-21T01:00:13;15.80;99.90
72865;DHT22;61000;48.120;11.548;2022-08-21T01:02:43;15.70;99.90
72865;DHT22;61000;48.120;11.548;2022-08-21T01:05:10;15.70;99.90
72865;DHT22;61000;48.120;11.548;2022-08-21T01:07:37;15.70;99.90
72865;DHT22;61000;48.120;11.548;2022-08-21T01:10:05;15.70;99.90
72865;DHT22;61000;48.120;11.548;2022-08-21T01:12:34;15.70;99.90
72865;DHT22;61000;48.120;11.548;2022-08-21T01:15:01;15.60;99.90
72865;DHT22;61000;48.120;11.548;2022-08-21T01:17:29;15.60;99.90
72865;DHT22;61000;48.120;11.548;2022-08-21T01:19:59;15.60;99.90
72865;DHT22;61000;48.120;11.548;2022-08-21T01:22:27;15.60;99.90
72865;DHT22;61000;48.120;11.548;2022-08-21T01:24:54;15.60;99.90
72865;DHT22;61000;48.120;11.548;2022-08-21T01:27:21;15.60;99.90
72865;DHT22;61000;48.120;11.548;2022-08-21T01:29:52;15.50;99.90
72865;DHT22;61000;48.120;11.548;2022-08-21T01:32:21;15.50;99.90
72865;DHT22;61000;48.120;11.548;2022-08-21T01:34:49;15.50;99.90
72865;DHT22;61000;48.120;11.548;2022-08-21T01:37:16;15.50;99.90
72865;DHT22;61000;48.120;11.548;2022-08-21T01:39:45;15.50;99.90
72865;DHT22;61000;48.120;11.548;2022-08-21T01:42:13;15.40;99.90
72865;DHT22;61000;48.120;11.548;2022-08-21T01:44:40;15.40;99.90
72865;DHT22;61000;48.120;11.548;2022-08-21T01:47:10;15.40;99.90
72865;DHT22;61000;48.120;11.548;2022-08-21T01:49:39;15.40;99.90
72865;DHT22;61000;48.120;11.548;2022-08-21T01:52:06;15.40;99.90
72865;DHT22;61000;48.120;11.548;2022-08-21T01:54:33;15.40;99.90
72865;DHT22;61000;48.120;11.548;2022-08-21T01:57:03;15.30;99.90
72865;DHT22;61000;48.120;11.548;2022-08-21T01:59:30;15.30;99.90
72865;DHT22;61000;48.120;11.548;2022-08-21T02:01:58;15.30;99.90
72865;DHT22;61000;48.120;11.548;2022-08-21T02:04:25;15.30;99.90
72865;DHT22;61000;48.120;11.548;2022-08-21T02:06:52;15.30;99.90
72865;DHT22;61000;48.120;11.548;2022-08-21T02:09:19;15.30;99.90
72865;DHT22;61000;48.120;11.548;2022-08-21T02:11:47;15.20;99.90
72865;DHT22;61000;48.120;11.548;2022-08-21T02:14:15;15.20;99.90
72865;DHT22;61000;48.120;11.548;2022-08-21T02:16:43;15.20;99.90
72865;DHT22;61000;48.120;11.548;2022-08-21T02:19:11;15.20;99.90
72865;DHT22;61000;48.120;11.548;2022-08-21T02:21:39;15.20;99.90
72865;DHT22;61000;48.120;11.548;2022-08-21T02:24:06;15.20;99.90
72865;DHT22;61000;48.120;11.548;2022-08-21T02:26:33;15.20;99.90
72865;DHT22;61000;48.120;11.548;2022-08-21T02:29:01;15.10;99.90
72865;DHT22;61000;48.120;11.548;2022-08-21T02:31:29;15.20;99.90
72865;DHT22;61000;48.120;11.548;2022-08-21T02:33:56;15.10;99.90
72865;DHT22;61000;48.120;11.548;2022-08-21T02:36:23;15.10;99.90
72865;DHT22;61000;48.120;11.548;2022-08-21T02:38:50;15.10;99.90
72865;DHT22;61000;48.120;11.548;2022-08-21T02:41:20;15.10;99.90
72865;DHT22;61000;48.120;11.548;2022-08-21T02:43:47;15.20;99.90
72865;DHT22;61000;48.120;11.548;2022-08-21T02:46:16;15.10;99.90
72865;DHT22;61000;48.120;11.548;2022-08-21T02:48:45;15.20;99.90
72865;DHT22;61000;48.120;11.548;2022-08-21T02:51:14;15.20;99.90
72865;DHT22;61000;48.120;11.548;2022-08-21T02:53:43;15.20;99.90
72865;DHT22;61000;48.120;11.548;2022-08-21T02:56:14;15.20;99.90
72865;DHT22;61000;48.120;11.548;2022-08-21T02:58:44;15.20;99.90
72865;DHT22;61000;48.120;11.548;2022-08-21T03:01:12;15.20;99.90
72865;DHT22;61000;48.120;11.548;2022-08-21T03:03:42;15.20;99.90
72865;DHT22;61000;48.120;11.548;2022-08-21T03:06:13;15.20;99.90
72865;DHT22;61000;48.120;11.548;2022-08-21T03:08:40;15.20;99.90
72865;DHT22;61000;48.120;11.548;2022-08-21T03:11:08;15.20;99.90
72865;DHT22;61000;48.120;11.548;2022-08-21T03:13:35;15.20;99.90
72865;DHT22;61000;48.120;11.548;2022-08-21T03:16:02;15.20;99.90
72865;DHT22;61000;48.120;11.548;2022-08-21T03:18:29;15.20;99.90
72865;DHT22;61000;48.120;11.548;2022-08-21T03:20:56;15.20;99.90
72865;DHT22;61000;48.120;11.548;2022-08-21T03:23:24;15.20;99.90
72865;DHT22;61000;48.120;11.548;2022-08-21T03:25:51;15.20;99.90
72865;DHT22;61000;48.120;11.548;2022-08-21T03:28:20;15.20;99.90
72865;DHT22;61000;48.120;11.548;2022-08-21T03:30:49;15.20;99.90
72865;DHT22;61000;48.120;11.548;2022-08-21T03:33:16;15.20;99.90
72865;DHT22;61000;48.120;11.548;2022-08-21T03:35:45;15.10;99.90
72865;DHT22;61000;48.120;11.548;2022-08-21T03:38:13;15.10;99.90
72865;DHT22;61000;48.120;11.548;2022-08-21T03:40:42;15.10;99.90
72865;DHT22;61000;48.120;11.548;2022-08-21T03:43:09;15.10;99.90
72865;DHT22;61000;48.120;11.548;2022-08-21T03:45:36;15.10;99.90
72865;DHT22;61000;48.120;11.548;2022-08-21T03:48:05;15.10;99.90
72865;DHT22;61000;48.120;11.548;2022-08-21T03:50:35;15.10;99.90
72865;DHT22;61000;48.120;11.548;2022-08-21T03:53:03;15.10;99.90
72865;DHT22;61000;48.120;11.548;2022-08-21T03:55:30;15.10;99.90
72865;DHT22;61000;48.120;11.548;2022-08-21T03:57:58;15.10;99.90
72865;DHT22;61000;48.120;11.548;2022-08-21T04:00:25;15.10;99.90
72865;DHT22;61000;48.120;11.548;2022-08-21T04:02:52;15.10;99.90
72865;DHT22;61000;48.120;11.548;2022-08-21T04:05:20;15.00;99.90
72865;DHT22;61000;48.120;11.548;2022-08-21T04:07:55;15.00;99.90
72865;DHT22;61000;48.120;11.548;2022-08-21T04:10:22;15.00;99.90
72865;DHT22;61000;48.120;11.548;2022-08-21T04:12:50;15.00;99.90
72865;DHT22;61000;48.120;11.548;2022-08-21T04:15:19;15.00;99.90
72865;DHT22;61000;48.120;11.548;2022-08-21T04:17:46;15.00;99.90
72865;DHT22;61000;48.120;11.548;2022-08-21T04:20:14;15.00;99.90
72865;DHT22;61000;48.120;11.548;2022-08-21T04:22:41;14.90;99.90
72865;DHT22;61000;48.120;11.548;2022-08-21T04:25:08;14.90;99.90
72865;DHT22;61000;48.120;11.548;2022-08-21T04:27:35;14.90;99.90
72865;DHT22;61000;48.120;11.548;2022-08-21T04:30:02;14.90;99.90
72865;DHT22;61000;48.120;11.548;2022-08-21T04:32:31;14.90;99.90
72865;DHT22;61000;48.120;11.548;2022-08-21T04:35:01;14.90;99.90
72865;DHT22;61000;48.120;11.548;2022-08-21T04:37:29;14.90;99.90
72865;DHT22;61000;48.120;11.548;2022-08-21T04:39:56;14.90;99.90
72865;DHT22;61000;48.120;11.548;2022-08-21T04:42:23;14.90;99.90
72865;DHT22;61000;48.120;11.548;2022-08-21T04:44:51;14.90;99.90
72865;DHT22;61000;48.120;11.548;2022-08-21T04:47:18;14.90;99.90
72865;DHT22;61000;48.120;11.548;2022-08-21T04:49:46;14.90;99.90
72865;DHT22;61000;48.120;11.548;2022-08-21T04:52:16;14.90;99.90
72865;DHT22;61000;48.120;11.548;2022-08-21T04:54:44;14.90;99.90
72865;DHT22;61000;48.120;11.548;2022-08-21T04:57:12;14.90;99.90
72865;DHT22;61000;48.120;11.548;2022-08-21T04:59:42;14.90;99.90
72865;DHT22;61000;48.120;11.548;2022-08-21T05:02:10;14.90;99.90
72865;DHT22;61000;48.120;11.548;2022-08-21T05:04:41;14.90;99.90
72865;DHT22;61000;48.120;11.548;2022-08-21T05:07:12;15.00;99.90
72865;DHT22;61000;48.120;11.548;2022-08-21T05:09:39;14.90;99.90
72865;DHT22;61000;48.120;11.548;2022-08-21T05:12:06;15.00;99.90
72865;DHT22;61000;48.120;11.548;2022-08-21T05:14:33;15.00;99.90
72865;DHT22;61000;48.120;11.548;2022-08-21T05:17:00;15.00;99.90
72865;DHT22;61000;48.120;11.548;2022-08-21T05:19:27;15.00;99.90
72865;DHT22;61000;48.120;11.548;2022-08-21T05:21:55;15.10;99.90
72865;DHT22;61000;48.120;11.548;2022-08-21T05:24:24;15.10;99.90
72865;DHT22;61000;48.120;11.548;2022-08-21T05:26:51;15.10;99.90
72865;DHT22;61000;48.120;11.548;2022-08-21T05:29:18;15.10;99.90
72865;DHT22;61000;48.120;11.548;2022-08-21T05:31:46;15.10;99.90
72865;DHT22;61000;48.120;11.548;2022-08-21T05:34:14;15.10;99.90
72865;DHT22;61000;48.120;11.548;2022-08-21T05:36:41;15.20;99.90
72865;DHT22;61000;48.120;11.548;2022-08-21T05:39:08;15.20;99.90
72865;DHT22;61000;48.120;11.548;2022-08-21T05:41:36;15.20;99.90
72865;DHT22;61000;48.120;11.548;2022-08-21T05:44:04;15.30;99.90
72865;DHT22;61000;48.120;11.548;2022-08-21T05:46:31;15.30;99.90
72865;DHT22;61000;48.120;11.548;2022-08-21T05:48:58;15.30;99.90
72865;DHT22;61000;48.120;11.548;2022-08-21T05:51:25;15.40;99.90
72865;DHT22;61000;48.120;11.548;2022-08-21T05:53:52;15.40;99.90
72865;DHT22;61000;48.120;11.548;2022-08-21T05:56:19;15.40;99.90
72865;DHT22;61000;48.120;11.548;2022-08-21T05:58:48;15.40;99.90
72865;DHT22;61000;48.120;11.548;2022-08-21T06:01:15;15.50;99.90
72865;DHT22;61000;48.120;11.548;2022-08-21T06:03:42;15.50;99.90
72865;DHT22;61000;48.120;11.548;2022-08-21T06:06:09;15.50;99.90
72865;DHT22;61000;48.120;11.548;2022-08-21T06:08:36;15.60;99.90
72865;DHT22;61000;48.120;11.548;2022-08-21T06:11:04;15.60;99.90
72865;DHT22;61000;48.120;11.548;2022-08-21T06:13:31;15.70;99.90
72865;DHT22;61000;48.120;11.548;2022-08-21T06:16:05;15.80;99.90
72865;DHT22;61000;48.120;11.548;2022-08-21T06:18:33;15.80;99.90
72865;DHT22;61000;48.120;11.548;2022-08-21T06:20:59;15.90;99.90
72865;DHT22;61000;48.120;11.548;2022-08-21T06:23:26;16.00;99.90
72865;DHT22;61000;48.120;11.548;2022-08-21T06:25:53;16.10;99.90
72865;DHT22;61000;48.120;11.548;2022-08-21T06:28:20;16.10;99.90
72865;DHT22;61000;48.120;11.548;2022-08-21T06:30:47;16.20;99.90
72865;DHT22;61000;48.120;11.548;2022-08-21T06:33:15;16.30;99.90
72865;DHT22;61000;48.120;11.548;2022-08-21T06:35:42;16.40;99.90
72865;DHT22;61000;48.120;11.548;2022-08-21T06:38:09;16.40;99.90
72865;DHT22;61000;48.120;11.548;2022-08-21T06:40:37;16.50;99.90
72865;DHT22;61000;48.120;11.548;2022-08-21T06:43:09;16.60;99.90
72865;DHT22;61000;48.120;11.548;2022-08-21T06:45:37;16.60;99.90
72865;DHT22;61000;48.120;11.548;2022-08-21T06:48:05;16.70;99.90
72865;DHT22;61000;48.120;11.548;2022-08-21T06:50:34;16.80;99.90
72865;DHT22;61000;48.120;11.548;2022-08-21T06:53:05;16.90;99.90
72865;DHT22;61000;48.120;11.548;2022-08-21T06:55:32;16.90;99.90
72865;DHT22;61000;48.120;11.548;2022-08-21T06:57:59;17.00;99.90
72865;DHT22;61000;48.120;11.548;2022-08-21T07:00:27;17.00;99.90
72865;DHT22;61000;48.120;11.548;2022-08-21T07:02:54;17.10;99.90
72865;DHT22;61000;48.120;11.548;2022-08-21T07:05:21;17.20;99.90
72865;DHT22;61000;48.120;11.548;2022-08-21T07:07:49;17.30;99.90
72865;DHT22;61000;48.120;11.548;2022-08-21T07:10:16;17.30;99.90
72865;DHT22;61000;48.120;11.548;2022-08-21T07:12:43;17.50;99.90
72865;DHT22;61000;48.120;11.548;2022-08-21T07:15:10;17.50;99.90
72865;DHT22;61000;48.120;11.548;2022-08-21T07:17:37;17.60;99.90
72865;DHT22;61000;48.120;11.548;2022-08-21T07:20:05;17.70;99.80
72865;DHT22;61000;48.120;11.548;2022-08-21T07:22:32;17.80;99.60
72865;DHT22;61000;48.120;11.548;2022-08-21T07:25:01;17.80;99.30
72865;DHT22;61000;48.120;11.548;2022-08-21T07:27:28;17.90;99.20
72865;DHT22;61000;48.120;11.548;2022-08-21T07:29:54;18.00;98.40
72865;DHT22;61000;48.120;11.548;2022-08-21T07:32:21;18.00;98.00
72865;DHT22;61000;48.120;11.548;2022-08-21T07:34:48;18.10;97.50
72865;DHT22;61000;48.120;11.548;2022-08-21T07:37:15;18.20;97.60
72865;DHT22;61000;48.120;11.548;2022-08-21T07:39:42;18.20;97.30
72865;DHT22;61000;48.120;11.548;2022-08-21T07:42:11;18.30;97.40
72865;DHT22;61000;48.120;11.548;2022-08-21T07:44:37;18.50;96.80
72865;DHT22;61000;48.120;11.548;2022-08-21T07:47:04;18.60;96.60
72865;DHT22;61000;48.120;11.548;2022-08-21T07:49:31;18.70;96.30
72865;DHT22;61000;48.120;11.548;2022-08-21T07:51:58;18.80;96.50
72865;DHT22;61000;48.120;11.548;2022-08-21T07:54:25;18.80;95.10
72865;DHT22;61000;48.120;11.548;2022-08-21T07:56:53;19.00;95.00
72865;DHT22;61000;48.120;11.548;2022-08-21T07:59:21;19.10;93.90
72865;DHT22;61000;48.120;11.548;2022-08-21T08:01:48;19.10;92.60
72865;DHT22;61000;48.120;11.548;2022-08-21T08:04:15;19.30;93.60
72865;DHT22;61000;48.120;11.548;2022-08-21T08:06:42;19.40;92.80
72865;DHT22;61000;48.120;11.548;2022-08-21T08:09:09;19.40;92.20
72865;DHT22;61000;48.120;11.548;2022-08-21T08:11:37;19.50;92.60
72865;DHT22;61000;48.120;11.548;2022-08-21T08:14:05;19.80;92.10
72865;DHT22;61000;48.120;11.548;2022-08-21T08:16:33;19.80;92.00
72865;DHT22;61000;48.120;11.548;2022-08-21T08:19:00;19.90;91.50
72865;DHT22;61000;48.120;11.548;2022-08-21T08:21:27;20.00;91.00
72865;DHT22;61000;48.120;11.548;2022-08-21T08:23:54;20.00;90.90
72865;DHT22;61000;48.120;11.548;2022-08-21T08:26:21;20.10;91.00
72865;DHT22;61000;48.120;11.548;2022-08-21T08:28:48;20.30;90.90
72865;DHT22;61000;48.120;11.548;2022-08-21T08:31:15;20.20;89.60
72865;DHT22;61000;48.120;11.548;2022-08-21T08:33:43;20.20;89.50
72865;DHT22;61000;48.120;11.548;2022-08-21T08:36:14;20.20;88.90
72865;DHT22;61000;48.120;11.548;2022-08-21T08:38:41;20.30;89.10
72865;DHT22;61000;48.120;11.548;2022-08-21T08:41:11;20.30;90.00
72865;DHT22;61000;48.120;11.548;2022-08-21T08:43:42;20.40;90.20
72865;DHT22;61000;48.120;11.548;2022-08-21T08:46:14;20.40;89.80
72865;DHT22;61000;48.120;11.548;2022-08-21T08:48:49;20.40;89.90
72865;DHT22;61000;48.120;11.548;2022-08-21T08:51:22;20.50;90.60
72865;DHT22;61000;48.120;11.548;2022-08-21T08:53:51;20.70;90.00
72865;DHT22;61000;48.120;11.548;2022-08-21T08:56:25;20.80;89.90
72865;DHT22;61000;48.120;11.548;2022-08-21T08:58:53;20.90;88.90
72865;DHT22;61000;48.120;11.548;2022-08-21T09:01:21;21.00;87.60
72865;DHT22;61000;48.120;11.548;2022-08-21T09:03:50;20.90;85.80
72865;DHT22;61000;48.120;11.548;2022-08-21T09:06:33;20.90;85.80
72865;DHT22;61000;48.120;11.548;2022-08-21T09:09:12;21.10;86.80
72865;DHT22;61000;48.120;11.548;2022-08-21T09:11:57;21.10;84.10
72865;DHT22;61000;48.120;11.548;2022-08-21T09:14:32;21.10;84.70
72865;DHT22;61000;48.120;11.548;2022-08-21T09:17:12;21.20;84.60
72865;DHT22;61000;48.120;11.548;2022-08-21T09:19:53;21.40;83.40
72865;DHT22;61000;48.120;11.548;2022-08-21T09:22:30;21.50;81.70
72865;DHT22;61000;48.120;11.548;2022-08-21T09:25:10;21.90;81.20
72865;DHT22;61000;48.120;11.548;2022-08-21T09:27:38;22.40;77.50
72865;DHT22;61000;48.120;11.548;2022-08-21T09:30:07;23.10;74.00
72865;DHT22;61000;48.120;11.548;2022-08-21T09:32:36;24.30;70.80
72865;DHT22;61000;48.120;11.548;2022-08-21T09:35:08;25.30;66.30
72865;DHT22;61000;48.120;11.548;2022-08-21T09:37:47;26.20;63.30
72865;DHT22;61000;48.120;11.548;2022-08-21T09:42:54;27.30;56.00
72865;DHT22;61000;48.120;11.548;2022-08-21T09:45:22;28.10;56.00
72865;DHT22;61000;48.120;11.548;2022-08-21T09:47:51;28.50;53.00
72865;DHT22;61000;48.120;11.548;2022-08-21T09:52:55;29.40;50.90
72865;DHT22;61000;48.120;11.548;2022-08-21T09:55:30;28.60;52.40
72865;DHT22;61000;48.120;11.548;2022-08-21T09:58:16;27.30;53.70
72865;DHT22;61000;48.120;11.548;2022-08-21T10:00:44;25.80;56.60
72865;DHT22;61000;48.120;11.548;2022-08-21T10:03:14;25.00;60.00
72865;DHT22;61000;48.120;11.548;2022-08-21T10:05:55;24.50;62.70
72865;DHT22;61000;48.120;11.548;2022-08-21T10:08:25;23.90;65.30
72865;DHT22;61000;48.120;11.548;2022-08-21T10:10:56;23.60;67.50
72865;DHT22;61000;48.120;11.548;2022-08-21T10:13:36;23.20;69.10
72865;DHT22;61000;48.120;11.548;2022-08-21T10:16:18;23.40;70.60
72865;DHT22;61000;48.120;11.548;2022-08-21T10:18:56;24.30;68.30
72865;DHT22;61000;48.120;11.548;2022-08-21T10:21:34;25.20;64.40
72865;DHT22;61000;48.120;11.548;2022-08-21T10:24:08;26.30;62.00
72865;DHT22;61000;48.120;11.548;2022-08-21T10:26:45;26.90;59.40
72865;DHT22;61000;48.120;11.548;2022-08-21T10:29:33;27.30;56.70
72865;DHT22;61000;48.120;11.548;2022-08-21T10:32:08;27.60;56.00
72865;DHT22;61000;48.120;11.548;2022-08-21T10:34:45;27.40;55.70
72865;DHT22;61000;48.120;11.548;2022-08-21T10:37:24;26.80;56.10
72865;DHT22;61000;48.120;11.548;2022-08-21T10:40:12;26.40;57.20
72865;DHT22;61000;48.120;11.548;2022-08-21T10:42:49;26.10;58.80
72865;DHT22;61000;48.120;11.548;2022-08-21T10:45:29;25.80;61.10
72865;DHT22;61000;48.120;11.548;2022-08-21T10:48:03;25.60;60.70
72865;DHT22;61000;48.120;11.548;2022-08-21T10:50:34;25.60;61.40
72865;DHT22;61000;48.120;11.548;2022-08-21T10:53:16;25.40;61.60
72865;DHT22;61000;48.120;11.548;2022-08-21T10:55:52;25.50;62.40
72865;DHT22;61000;48.120;11.548;2022-08-21T10:58:26;25.00;63.80
72865;DHT22;61000;48.120;11.548;2022-08-21T11:00:58;24.60;64.50
72865;DHT22;61000;48.120;11.548;2022-08-21T11:03:33;24.50;64.80
72865;DHT22;61000;48.120;11.548;2022-08-21T11:06:06;24.10;64.80
72865;DHT22;61000;48.120;11.548;2022-08-21T11:08:41;24.00;64.20
72865;DHT22;61000;48.120;11.548;2022-08-21T11:11:12;24.30;65.10
72865;DHT22;61000;48.120;11.548;2022-08-21T11:13:49;24.50;64.10
72865;DHT22;61000;48.120;11.548;2022-08-21T11:16:31;24.60;63.30
72865;DHT22;61000;48.120;11.548;2022-08-21T11:19:13;24.80;62.70
72865;DHT22;61000;48.120;11.548;2022-08-21T11:25:00;24.80;62.70
72865;DHT22;61000;48.120;11.548;2022-08-21T11:28:00;24.50;63.90
72865;DHT22;61000;48.120;11.548;2022-08-21T11:30:52;24.10;63.30
72865;DHT22;61000;48.120;11.548;2022-08-21T11:33:49;24.00;62.60
72865;DHT22;61000;48.120;11.548;2022-08-21T11:36:34;24.00;61.70
72865;DHT22;61000;48.120;11.548;2022-08-21T11:39:10;24.00;62.70
72865;DHT22;61000;48.120;11.548;2022-08-21T11:41:43;24.10;63.00
72865;DHT22;61000;48.120;11.548;2022-08-21T11:44:21;24.10;62.70
72865;DHT22;61000;48.120;11.548;2022-08-21T11:46:59;24.20;61.70
72865;DHT22;61000;48.120;11.548;2022-08-21T11:49:46;24.40;56.20
72865;DHT22;61000;48.120;11.548;2022-08-21T11:52:20;24.50;58.40
72865;DHT22;61000;48.120;11.548;2022-08-21T11:54:54;24.50;58.50
72865;DHT22;61000;48.120;11.548;2022-08-21T11:57:29;24.40;58.50
72865;DHT22;61000;48.120;11.548;2022-08-21T12:00:00;24.20;53.80
72865;DHT22;61000;48.120;11.548;2022-08-21T12:02:42;24.20;53.30
72865;DHT22;61000;48.120;11.548;2022-08-21T12:05:23;24.10;53.70
72865;DHT22;61000;48.120;11.548;2022-08-21T12:08:02;24.00;54.20
72865;DHT22;61000;48.120;11.548;2022-08-21T12:10:36;24.00;54.60
72865;DHT22;61000;48.120;11.548;2022-08-21T12:13:10;24.00;53.70
72865;DHT22;61000;48.120;11.548;2022-08-21T12:15:39;24.30;52.30
72865;DHT22;61000;48.120;11.548;2022-08-21T12:18:20;24.60;50.30
72865;DHT22;61000;48.120;11.548;2022-08-21T12:20:59;24.80;49.90
72865;DHT22;61000;48.120;11.548;2022-08-21T12:23:29;24.90;51.60
72865;DHT22;61000;48.120;11.548;2022-08-21T12:29:15;24.70;54.30
72865;DHT22;61000;48.120;11.548;2022-08-21T12:31:52;24.70;55.10
72865;DHT22;61000;48.120;11.548;2022-08-21T12:34:21;24.60;55.90
72865;DHT22;61000;48.120;11.548;2022-08-21T12:36:53;24.40;52.00
72865;DHT22;61000;48.120;11.548;2022-08-21T12:39:27;24.20;52.20
72865;DHT22;61000;48.120;11.548;2022-08-21T12:42:00;24.20;52.50
72865;DHT22;61000;48.120;11.548;2022-08-21T12:44:36;24.00;52.30
72865;DHT22;61000;48.120;11.548;2022-08-21T12:47:11;24.10;53.90
72865;DHT22;61000;48.120;11.548;2022-08-21T12:49:47;24.20;54.80
72865;DHT22;61000;48.120;11.548;2022-08-21T12:52:21;24.40;52.90
72865;DHT22;61000;48.120;11.548;2022-08-21T12:54:48;24.50;52.50
72865;DHT22;61000;48.120;11.548;2022-08-21T12:57:21;24.70;52.10
72865;DHT22;61000;48.120;11.548;2022-08-21T12:59:54;24.70;51.20
72865;DHT22;61000;48.120;11.548;2022-08-21T13:02:24;25.00;51.30
72865;DHT22;61000;48.120;11.548;2022-08-21T13:04:52;25.20;50.50
72865;DHT22;61000;48.120;11.548;2022-08-21T13:07:26;25.40;50.10
72865;DHT22;61000;48.120;11.548;2022-08-21T13:09:59;25.20;50.50
72865;DHT22;61000;48.120;11.548;2022-08-21T13:12:27;25.20;50.10
72865;DHT22;61000;48.120;11.548;2022-08-21T13:14:58;25.20;49.00
72865;DHT22;61000;48.120;11.548;2022-08-21T13:17:27;25.40;50.40
72865;DHT22;61000;48.120;11.548;2022-08-21T13:19:58;25.30;51.10
72865;DHT22;61000;48.120;11.548;2022-08-21T13:22:26;25.00;51.60
72865;DHT22;61000;48.120;11.548;2022-08-21T13:24:54;25.00;53.00
72865;DHT22;61000;48.120;11.548;2022-08-21T13:27:25;24.80;52.70
72865;DHT22;61000;48.120;11.548;2022-08-21T13:30:07;24.70;51.80
72865;DHT22;61000;48.120;11.548;2022-08-21T13:32:36;25.20;52.40
72865;DHT22;61000;48.120;11.548;2022-08-21T13:35:14;25.60;50.90
72865;DHT22;61000;48.120;11.548;2022-08-21T13:37:43;25.80;49.80
72865;DHT22;61000;48.120;11.548;2022-08-21T13:40:13;26.10;50.00
72865;DHT22;61000;48.120;11.548;2022-08-21T13:42:43;26.50;49.20
72865;DHT22;61000;48.120;11.548;2022-08-21T13:45:15;26.60;48.50
72865;DHT22;61000;48.120;11.548;2022-08-21T13:47:43;26.60;48.20
72865;DHT22;61000;48.120;11.548;2022-08-21T13:50:13;26.40;49.60
72865;DHT22;61000;48.120;11.548;2022-08-21T13:52:55;26.20;49.70
72865;DHT22;61000;48.120;11.548;2022-08-21T13:55:23;25.70;50.20
72865;DHT22;61000;48.120;11.548;2022-08-21T13:57:59;25.60;51.80
72865;DHT22;61000;48.120;11.548;2022-08-21T14:00:32;25.40;51.40
72865;DHT22;61000;48.120;11.548;2022-08-21T14:03:04;25.30;50.80
72865;DHT22;61000;48.120;11.548;2022-08-21T14:05:34;25.30;50.50
72865;DHT22;61000;48.120;11.548;2022-08-21T14:08:06;25.50;50.30
72865;DHT22;61000;48.120;11.548;2022-08-21T14:10:37;25.60;50.10
72865;DHT22;61000;48.120;11.548;2022-08-21T14:13:14;25.80;51.10
72865;DHT22;61000;48.120;11.548;2022-08-21T14:15:55;26.00;50.30
72865;DHT22;61000;48.120;11.548;2022-08-21T14:18:22;25.90;50.60
72865;DHT22;61000;48.120;11.548;2022-08-21T14:20:52;25.80;50.80
72865;DHT22;61000;48.120;11.548;2022-08-21T14:23:29;25.60;50.70
72865;DHT22;61000;48.120;11.548;2022-08-21T14:25:59;25.20;51.00
72865;DHT22;61000;48.120;11.548;2022-08-21T14:28:28;25.10;51.30
72865;DHT22;61000;48.120;11.548;2022-08-21T14:31:11;24.90;51.90
72865;DHT22;61000;48.120;11.548;2022-08-21T14:33:38;24.90;51.40
72865;DHT22;61000;48.120;11.548;2022-08-21T14:36:06;25.00;51.20
72865;DHT22;61000;48.120;11.548;2022-08-21T14:38:36;25.10;51.60
72865;DHT22;61000;48.120;11.548;2022-08-21T14:41:08;25.20;51.30
72865;DHT22;61000;48.120;11.548;2022-08-21T14:43:36;25.30;50.90
72865;DHT22;61000;48.120;11.548;2022-08-21T14:46:04;25.40;51.30
72865;DHT22;61000;48.120;11.548;2022-08-21T14:48:31;25.40;50.60
72865;DHT22;61000;48.120;11.548;2022-08-21T14:50:58;25.60;50.40
72865;DHT22;61000;48.120;11.548;2022-08-21T14:53:25;25.50;49.80
72865;DHT22;61000;48.120;11.548;2022-08-21T14:55:52;25.70;50.20
72865;DHT22;61000;48.120;11.548;2022-08-21T14:58:33;25.60;49.40
72865;DHT22;61000;48.120;11.548;2022-08-21T15:01:01;25.60;49.40
72865;DHT22;61000;48.120;11.548;2022-08-21T15:03:30;25.80;50.20
72865;DHT22;61000;48.120;11.548;2022-08-21T15:05:58;25.70;49.00
72865;DHT22;61000;48.120;11.548;2022-08-21T15:08:29;25.70;49.50
72865;DHT22;61000;48.120;11.548;2022-08-21T15:10:58;25.80;49.30
72865;DHT22;61000;48.120;11.548;2022-08-21T15:13:28;25.80;48.60
72865;DHT22;61000;48.120;11.548;2022-08-21T15:15:56;25.80;48.20
72865;DHT22;61000;48.120;11.548;2022-08-21T15:18:25;25.80;48.70
72865;DHT22;61000;48.120;11.548;2022-08-21T15:20:53;26.00;49.00
72865;DHT22;61000;48.120;11.548;2022-08-21T15:23:20;25.90;48.10
72865;DHT22;61000;48.120;11.548;2022-08-21T15:25:48;25.70;47.70
72865;DHT22;61000;48.120;11.548;2022-08-21T15:28:16;25.70;48.00
72865;DHT22;61000;48.120;11.548;2022-08-21T15:30:45;25.80;48.20
72865;DHT22;61000;48.120;11.548;2022-08-21T15:33:12;25.90;48.20
72865;DHT22;61000;48.120;11.548;2022-08-21T15:35:39;25.90;47.60
72865;DHT22;61000;48.120;11.548;2022-08-21T15:38:07;25.90;47.90
72865;DHT22;61000;48.120;11.548;2022-08-21T15:40:35;26.00;46.60
72865;DHT22;61000;48.120;11.548;2022-08-21T15:43:03;25.90;46.40
72865;DHT22;61000;48.120;11.548;2022-08-21T15:45:31;25.80;47.00